Time;durP1;ratioP1;P1;durP2;ratioP2;P2;SDS_P1;SDS_P2;PMS_P1;PMS_P2;Temp;Humidity;BMP_temperature;BMP_pressure;BME280_temperature;BME280_humidity;BME280_pressure;Samples;Min_cycle;Max_cycle;Signal;HPM_P1;HPM_P2
2021/01/21 06:10:51;;;;;;;0.93;0.40;;;11.20;44.80;;;;;;5192823;23;20105;-83
2021/01/21 06:13:19;;;;;;;1.30;0.52;;;11.20;45.00;;;;;;4977221;29;20045;-85
2021/01/21 06:15:48;;;;;;;0.95;0.40;;;11.10;44.80;;;;;;4962182;29;20107;-85
2021/01/21 06:18:15;;;;;;;1.15;0.40;;;11.20;44.70;;;;;;4953345;29;20560;-85
2021/01/21 06:20:42;;;;;;;2.25;0.60;;;11.20;44.80;;;;;;4973666;29;20065;-86
2021/01/21 06:23:15;;;;;;;1.65;0.50;;;11.10;44.50;;;;;;4968263;29;20054;-83
2021/01/21 06:25:44;;;;;;;0.82;0.30;;;11.30;44.50;;;;;;4957891;29;20081;-83
2021/01/21 06:28:13;;;;;;;1.55;0.50;;;11.20;44.50;;;;;;4940228;29;20065;-86
2021/01/21 06:30:40;;;;;;;1.33;0.40;;;11.20;44.20;;;;;;4975466;29;20055;-83
2021/01/21 06:33:08;;;;;;;1.55;0.52;;;11.40;44.60;;;;;;4957692;29;20512;-86
2021/01/21 06:52:14;;;;;;;1.20;0.70;;;11.50;42.60;;;;;;5225846;23;20043;-83
2021/01/21 06:54:43;;;;;;;1.67;0.70;;;11.30;43.10;;;;;;5000292;28;20031;-84
2021/01/21 06:57:45;;;;;;;2.80;0.77;;;11.50;43.50;;;;;;4967570;28;20107;-83
2021/01/21 07:00:42;;;;;;;1.80;0.60;;;11.60;43.80;;;;;;4997794;28;20070;-83
2021/01/21 07:06:03;;;;;;;1.30;0.57;;;11.60;45.40;;;;;;5078429;23;20511;-93
2021/01/21 07:09:03;;;;;;;2.05;0.80;;;11.60;46.20;;;;;;4973914;28;20883;-92
2021/01/21 07:11:29;;;;;;;2.33;0.75;;;11.60;47.20;;;;;;4974301;28;20250;-93
2021/01/21 07:13:58;;;;;;;1.95;0.60;;;11.70;48.20;;;;;;4973521;28;20137;-94
2021/01/21 07:16:25;;;;;;;1.42;0.50;;;11.70;49.10;;;;;;4973670;28;20075;-93
2021/01/21 07:18:53;;;;;;;1.33;0.50;;;11.60;49.60;;;;;;4974597;28;20139;-94
2021/01/21 07:21:24;;;;;;;1.52;0.60;;;11.60;49.90;;;;;;4974670;28;20484;-92
2021/01/21 07:23:55;;;;;;;2.25;0.80;;;11.70;50.40;;;;;;4974557;28;20069;-93
2021/01/21 07:26:31;;;;;;;2.05;0.63;;;11.60;51.00;;;;;;4973871;28;20146;-93
2021/01/21 07:29:12;;;;;;;1.42;0.65;;;11.50;51.30;;;;;;4974924;28;20054;-92
2021/01/21 07:32:08;;;;;;;2.72;0.70;;;11.40;52.40;;;;;;4975626;28;20137;-92
2021/01/21 07:34:43;;;;;;;2.60;0.63;;;11.40;52.80;;;;;;4958758;28;20404;-94
2021/01/21 07:37:32;;;;;;;;;;;11.40;53.60;;;;;;4976561;28;20481;-96
2021/01/21 07:40:05;;;;;;;1.15;0.50;;;11.40;54.00;;;;;;4975477;28;19929;-92
2021/01/21 07:42:52;;;;;;;1.15;0.50;;;11.50;54.30;;;;;;4975757;28;20420;-92
2021/01/21 07:45:44;;;;;;;2.47;0.60;;;11.30;54.80;;;;;;4975976;28;20440;-92
2021/01/21 07:48:23;;;;;;;1.02;0.50;;;11.50;55.30;;;;;;4975269;28;20055;-92
2021/01/21 07:50:51;;;;;;;2.00;0.77;;;11.30;55.00;;;;;;4960973;28;20105;-95
2021/01/21 07:53:23;;;;;;;1.13;0.50;;;11.40;54.80;;;;;;4980314;28;20474;-94
2021/01/21 07:55:52;;;;;;;1.13;0.40;;;11.40;54.90;;;;;;4979002;28;20070;-93
2021/01/21 07:58:24;;;;;;;1.80;0.73;;;11.50;54.90;;;;;;4977291;28;20118;-91
2021/01/21 08:00:53;;;;;;;1.20;0.55;;;11.40;55.30;;;;;;4960663;28;20043;-93
2021/01/21 08:03:35;;;;;;;2.08;0.63;;;11.50;55.60;;;;;;4977365;28;20101;-93
2021/01/21 08:06:14;;;;;;;1.48;0.52;;;11.40;55.60;;;;;;4977164;28;20062;-93
2021/01/21 08:08:43;;;;;;;1.45;0.45;;;11.40;55.90;;;;;;4967439;28;20189;-93
2021/01/21 08:11:14;;;;;;;1.85;0.60;;;11.70;55.90;;;;;;4983232;28;20097;-94
2021/01/21 08:13:40;;;;;;;2.47;0.60;;;11.60;55.60;;;;;;4968893;28;20534;-93
2021/01/21 08:16:12;;;;;;;2.38;0.60;;;11.60;55.70;;;;;;4983972;28;20057;-92
2021/01/21 08:18:39;;;;;;;1.02;0.50;;;11.60;55.90;;;;;;4987443;28;20054;-92
2021/01/21 08:21:22;;;;;;;1.88;0.80;;;11.70;55.90;;;;;;4985432;28;20098;-92
2021/01/21 08:23:54;;;;;;;1.25;0.50;;;11.70;55.80;;;;;;4978151;28;20119;-92
2021/01/21 08:26:22;;;;;;;1.67;0.57;;;11.70;55.50;;;;;;4983009;28;20162;-92
2021/01/21 08:28:48;;;;;;;1.58;0.68;;;11.70;55.60;;;;;;4981218;28;20587;-91
2021/01/21 08:31:16;;;;;;;1.58;0.60;;;11.60;56.20;;;;;;4982000;28;20103;-92
2021/01/21 08:33:43;;;;;;;2.65;0.70;;;11.80;55.60;;;;;;4949644;28;20439;-93
2021/01/21 08:36:13;;;;;;;1.65;0.55;;;11.80;55.70;;;;;;4984224;28;20109;-93
2021/01/21 08:38:42;;;;;;;2.22;0.47;;;11.70;56.10;;;;;;4968578;28;20106;-93
2021/01/21 08:41:13;;;;;;;2.13;0.57;;;11.70;56.10;;;;;;4985420;28;20114;-92
2021/01/21 08:43:43;;;;;;;1.40;0.60;;;11.80;56.20;;;;;;4985111;28;20051;-92
2021/01/21 08:46:15;;;;;;;2.35;0.60;;;12.00;56.10;;;;;;4984586;28;20070;-93
2021/01/21 08:48:42;;;;;;;1.60;0.55;;;11.90;56.30;;;;;;4984570;28;20483;-94
2021/01/21 08:51:27;;;;;;;1.10;0.43;;;11.80;56.40;;;;;;4987682;28;20054;-90
2021/01/21 08:54:10;;;;;;;1.95;0.75;;;12.00;57.20;;;;;;4984119;28;20484;-92
2021/01/21 08:56:36;;;;;;;0.82;0.32;;;11.90;57.60;;;;;;4969724;28;20102;-92
2021/01/21 08:59:27;;;;;;;1.67;0.63;;;12.00;58.10;;;;;;4970686;28;20105;-94
2021/01/21 09:01:54;;;;;;;0.77;0.40;;;12.00;58.40;;;;;;4988308;28;20054;-93
2021/01/21 09:04:26;;;;;;;0.95;0.40;;;12.20;59.00;;;;;;4984664;28;20062;-91
2021/01/21 09:06:55;;;;;;;1.35;0.47;;;12.30;59.10;;;;;;4969116;28;20046;-93
2021/01/21 09:09:34;;;;;;;1.55;0.50;;;12.20;59.70;;;;;;4985551;28;20066;-92
2021/01/21 09:12:18;;;;;;;2.08;0.70;;;12.10;59.90;;;;;;4949005;29;20055;-90
2021/01/21 09:15:01;;;;;;;;;;;12.20;60.40;;;;;;4971299;28;20055;-90
2021/01/21 09:17:29;;;;;;;1.80;0.60;;;12.30;61.10;;;;;;4957853;29;19929;-91
2021/01/21 09:19:57;;;;;;;1.08;0.45;;;12.30;61.00;;;;;;4940632;29;20792;-92
2021/01/21 09:22:25;;;;;;;0.70;0.50;;;12.30;61.50;;;;;;4956810;29;20465;-91
2021/01/21 09:25:01;;;;;;;1.13;0.50;;;12.40;61.50;;;;;;4971585;28;20047;-93
2021/01/21 09:27:30;;;;;;;1.83;0.60;;;12.40;61.80;;;;;;4972687;28;20137;-94
2021/01/21 09:30:01;;;;;;;3.90;0.45;;;12.50;62.20;;;;;;4976056;28;20062;-94
2021/01/21 09:32:31;;;;;;;1.80;0.55;;;12.50;62.30;;;;;;4966706;28;20130;-94
2021/01/21 09:35:00;;;;;;;1.48;0.60;;;12.50;62.30;;;;;;4958907;29;20078;-91
2021/01/21 09:37:29;;;;;;;1.75;0.40;;;12.40;63.00;;;;;;4956672;28;20143;-92
2021/01/21 09:39:56;;;;;;;1.52;0.60;;;12.50;62.90;;;;;;4957524;28;20505;-89
2021/01/21 09:42:23;;;;;;;1.70;0.52;;;12.50;62.80;;;;;;4957876;29;20047;-91
2021/01/21 09:44:50;;;;;;;1.98;0.47;;;12.70;62.80;;;;;;4931077;28;20077;-92
2021/01/21 09:47:18;;;;;;;0.98;0.40;;;12.50;62.60;;;;;;4965603;28;20070;-92
2021/01/21 09:49:45;;;;;;;0.90;0.40;;;12.60;62.30;;;;;;4956071;29;20122;-92
2021/01/21 09:52:13;;;;;;;0.73;0.35;;;12.80;62.80;;;;;;4975343;28;20085;-92
2021/01/21 09:54:41;;;;;;;1.63;0.50;;;12.80;62.50;;;;;;4975978;28;20420;-92
2021/01/21 09:57:08;;;;;;;1.38;0.30;;;12.90;62.70;;;;;;4976274;28;20058;-90
2021/01/21 09:59:35;;;;;;;1.35;0.45;;;12.90;62.80;;;;;;4975416;28;20130;-90
2021/01/21 10:02:04;;;;;;;0.63;0.30;;;12.90;62.80;;;;;;4975346;28;20051;-91
2021/01/21 10:04:32;;;;;;;2.28;0.40;;;13.00;62.60;;;;;;4954295;29;20169;-93
2021/01/21 10:06:58;;;;;;;0.57;0.20;;;13.00;61.80;;;;;;4939066;29;20067;-92
2021/01/21 10:09:26;;;;;;;1.13;0.40;;;13.00;62.00;;;;;;4938923;29;20105;-93
2021/01/21 10:11:53;;;;;;;1.05;0.30;;;13.10;62.10;;;;;;4954480;29;20496;-93
2021/01/21 10:14:20;;;;;;;0.90;0.38;;;13.10;61.90;;;;;;4938335;29;20086;-91
2021/01/21 10:16:46;;;;;;;1.13;0.47;;;13.00;61.20;;;;;;4954741;29;20532;-92
2021/01/21 10:19:13;;;;;;;1.20;0.30;;;13.30;61.40;;;;;;4955087;29;20416;-92
2021/01/21 10:21:41;;;;;;;0.32;0.20;;;13.20;61.00;;;;;;4954256;29;20190;-92
2021/01/21 10:24:08;;;;;;;1.73;0.45;;;13.40;61.10;;;;;;4955245;29;20126;-92
2021/01/21 10:26:34;;;;;;;0.82;0.40;;;13.30;61.10;;;;;;4938729;29;20117;-91
2021/01/21 10:29:04;;;;;;;1.15;0.40;;;13.40;60.60;;;;;;4954998;29;20465;-91
2021/01/21 10:31:30;;;;;;;1.58;0.30;;;13.30;61.60;;;;;;4949044;28;20488;-93
2021/01/21 10:33:57;;;;;;;1.48;0.40;;;13.40;60.30;;;;;;4975305;28;20129;-94
2021/01/21 10:36:24;;;;;;;0.60;0.28;;;13.30;60.10;;;;;;4974963;28;20078;-92
2021/01/21 10:38:52;;;;;;;0.98;0.47;;;13.20;60.20;;;;;;4957792;28;20055;-93
2021/01/21 10:41:19;;;;;;;1.02;0.30;;;13.40;60.40;;;;;;4974966;28;20082;-92
2021/01/21 10:43:46;;;;;;;0.70;0.20;;;13.50;60.40;;;;;;4978596;28;20054;-96
2021/01/21 10:46:13;;;;;;;1.02;0.40;;;13.50;60.10;;;;;;4949944;29;20592;-96
2021/01/21 10:48:39;;;;;;;1.15;0.30;;;13.50;59.50;;;;;;4957188;29;20071;-96
2021/01/21 10:51:06;;;;;;;0.57;0.30;;;13.50;59.70;;;;;;4939436;29;20079;-93
2021/01/21 10:53:33;;;;;;;1.45;0.40;;;13.60;59.60;;;;;;4955948;29;20568;-94
2021/01/21 10:56:01;;;;;;;1.25;0.35;;;13.60;59.60;;;;;;4940328;28;20099;-92
2021/01/21 10:58:30;;;;;;;0.70;0.38;;;13.60;59.80;;;;;;4955183;29;20172;-94
2021/01/21 11:00:57;;;;;;;1.05;0.30;;;13.60;59.80;;;;;;4941879;29;20051;-94
2021/01/21 11:03:24;;;;;;;0.80;0.40;;;13.60;59.40;;;;;;4961481;29;20141;-96
2021/01/21 11:05:51;;;;;;;1.13;0.30;;;13.60;59.40;;;;;;4954752;29;20098;-96
2021/01/21 11:08:18;;;;;;;0.60;0.30;;;13.50;59.40;;;;;;4958985;28;20058;-96
2021/01/21 11:10:46;;;;;;;0.75;0.45;;;13.60;59.30;;;;;;4956980;29;20075;-95
2021/01/21 11:13:17;;;;;;;0.38;0.22;;;13.60;59.90;;;;;;4955930;28;20086;-95
2021/01/21 11:15:45;;;;;;;0.90;0.38;;;13.50;59.60;;;;;;4956219;28;20086;-94
2021/01/21 11:18:12;;;;;;;2.63;0.40;;;13.60;59.60;;;;;;4956908;28;20087;-95
2021/01/21 11:20:39;;;;;;;1.10;0.40;;;13.60;60.00;;;;;;4957495;28;20146;-95
2021/01/21 11:23:06;;;;;;;3.65;0.45;;;13.80;60.30;;;;;;4958865;28;20047;-95
2021/01/21 11:25:33;;;;;;;0.57;0.20;;;13.70;59.80;;;;;;4957517;29;20454;-96
2021/01/21 11:28:00;;;;;;;0.65;0.30;;;13.70;60.00;;;;;;4958671;28;20055;-95
2021/01/21 11:30:28;;;;;;;1.02;0.30;;;13.80;60.00;;;;;;4958483;28;20501;-96
2021/01/21 11:32:54;;;;;;;0.65;0.30;;;13.80;60.00;;;;;;4960298;28;20052;-96
2021/01/21 11:35:21;;;;;;;1.23;0.50;;;13.80;59.60;;;;;;4966361;28;20059;-95
2021/01/21 11:37:48;;;;;;;0.75;0.32;;;13.70;59.60;;;;;;4978663;28;20058;-96
2021/01/21 11:40:16;;;;;;;0.98;0.30;;;13.80;59.80;;;;;;4974291;28;20400;-96
2021/01/21 11:42:43;;;;;;;1.75;0.40;;;13.70;60.10;;;;;;4977463;28;20085;-95
2021/01/21 11:45:11;;;;;;;1.00;0.30;;;13.50;60.00;;;;;;4978299;28;20082;-95
2021/01/21 11:47:40;;;;;;;0.50;0.20;;;13.80;59.80;;;;;;4961718;28;20051;-96
2021/01/21 11:50:10;;;;;;;1.77;0.50;;;13.70;60.10;;;;;;4963603;28;20065;-96
2021/01/21 11:52:38;;;;;;;0.47;0.30;;;13.80;59.90;;;;;;4969308;29;20051;-96
2021/01/21 11:55:07;;;;;;;1.33;0.30;;;13.80;60.40;;;;;;4973349;29;20055;-94
2021/01/21 11:57:33;;;;;;;1.88;0.40;;;13.80;60.40;;;;;;4975836;28;20378;-96
2021/01/21 12:00:00;;;;;;;1.90;0.50;;;13.80;59.60;;;;;;4972644;28;20066;-96
2021/01/21 12:02:27;;;;;;;1.05;0.40;;;13.80;60.00;;;;;;4968176;28;20066;-96
2021/01/21 12:04:55;;;;;;;1.88;0.38;;;13.80;60.40;;;;;;4967129;28;20055;-96
2021/01/21 12:07:22;;;;;;;0.82;0.20;;;13.80;60.10;;;;;;4978381;29;20051;-94
2021/01/21 12:09:49;;;;;;;0.73;0.30;;;13.70;60.70;;;;;;4960747;29;20075;-93
2021/01/21 12:12:15;;;;;;;0.98;0.30;;;13.80;60.70;;;;;;4976599;29;20054;-96
2021/01/21 12:14:47;;;;;;;1.00;0.40;;;13.80;60.80;;;;;;4977910;28;20059;-96
2021/01/21 12:17:14;;;;;;;2.03;0.30;;;13.80;60.50;;;;;;4976929;28;20098;-96
2021/01/21 12:19:41;;;;;;;0.98;0.40;;;13.80;60.20;;;;;;4965775;29;20055;-96
2021/01/21 12:22:09;;;;;;;1.48;0.30;;;13.90;60.30;;;;;;4961530;29;20094;-95
2021/01/21 12:24:36;;;;;;;1.50;0.50;;;13.80;60.30;;;;;;4962977;29;20130;-94
2021/01/21 12:27:03;;;;;;;1.33;0.32;;;13.90;60.70;;;;;;4948948;29;20047;-96
2021/01/21 12:29:30;;;;;;;0.98;0.35;;;13.80;60.70;;;;;;4973182;28;20403;-96
2021/01/21 12:31:57;;;;;;;1.55;0.40;;;13.90;60.60;;;;;;4992835;28;20143;-95
2021/01/21 12:34:25;;;;;;;0.95;0.32;;;13.70;60.90;;;;;;4972416;28;20082;-96
2021/01/21 12:36:53;;;;;;;0.73;0.30;;;13.70;61.20;;;;;;4972767;28;20086;-96
2021/01/21 12:39:21;;;;;;;1.25;0.40;;;13.70;61.80;;;;;;4988061;28;20122;-96
2021/01/21 12:41:50;;;;;;;1.23;0.40;;;13.70;61.60;;;;;;4990811;28;20051;-96
2021/01/21 12:44:17;;;;;;;1.40;0.40;;;13.70;61.90;;;;;;4984635;28;20137;-96
2021/01/21 12:46:44;;;;;;;0.80;0.40;;;13.70;61.90;;;;;;4980716;28;20067;-96
2021/01/21 12:49:11;;;;;;;0.88;0.40;;;13.70;62.10;;;;;;4962481;28;20457;-95
2021/01/21 12:51:38;;;;;;;1.30;0.55;;;13.70;62.00;;;;;;4981964;28;20050;-96
2021/01/21 12:54:05;;;;;;;1.50;0.50;;;13.70;62.20;;;;;;4972290;28;20074;-95
2021/01/21 12:56:33;;;;;;;1.00;0.38;;;13.80;62.30;;;;;;4950040;29;20071;-96
2021/01/21 12:59:00;;;;;;;1.00;0.40;;;13.90;61.80;;;;;;4937736;29;20055;-96
2021/01/21 13:01:28;;;;;;;0.98;0.35;;;13.80;62.20;;;;;;4948716;29;20058;-96
2021/01/21 13:03:55;;;;;;;1.23;0.45;;;13.80;62.60;;;;;;4960863;29;20453;-96
2021/01/21 13:06:22;;;;;;;1.02;0.40;;;13.60;62.90;;;;;;4946583;29;20067;-96
2021/01/21 13:08:49;;;;;;;1.02;0.40;;;13.70;63.20;;;;;;4963208;28;20070;-96
2021/01/21 13:11:16;;;;;;;1.35;0.60;;;13.80;63.10;;;;;;4953736;29;20063;-95
2021/01/21 13:13:45;;;;;;;0.95;0.32;;;13.70;63.40;;;;;;4955350;29;20058;-96
2021/01/21 13:16:15;;;;;;;1.25;0.43;;;13.60;64.00;;;;;;4976933;29;20059;-96
2021/01/21 13:18:42;;;;;;;1.63;0.43;;;13.60;64.10;;;;;;4958656;28;20051;-96
2021/01/21 13:21:09;;;;;;;1.10;0.38;;;13.60;64.00;;;;;;4983188;28;20042;-96
2021/01/21 13:23:43;;;;;;;2.60;0.40;;;13.30;65.00;;;;;;4970596;28;20050;-96
2021/01/21 13:26:10;;;;;;;0.95;0.50;;;13.40;65.30;;;;;;4985808;28;20085;-96
2021/01/21 13:28:40;;;;;;;1.25;0.47;;;13.40;66.20;;;;;;4965506;28;20077;-96
2021/01/21 13:31:08;;;;;;;2.75;0.40;;;13.30;67.20;;;;;;4979580;28;20464;-96
2021/01/21 13:33:35;;;;;;;1.38;0.50;;;13.20;68.20;;;;;;4975423;28;20055;-96
2021/01/21 13:36:06;;;;;;;1.10;0.45;;;13.10;69.10;;;;;;4965686;29;20055;-96
2021/01/21 13:38:38;;;;;;;2.13;0.50;;;13.00;71.10;;;;;;4968080;29;20058;-96
2021/01/21 13:41:08;;;;;;;1.33;0.50;;;13.10;70.60;;;;;;4968212;28;20081;-96
2021/01/21 13:43:35;;;;;;;1.80;0.68;;;13.00;71.40;;;;;;4959073;28;20058;-96
2021/01/21 13:46:04;;;;;;;1.52;0.50;;;12.90;72.10;;;;;;4987265;28;20051;-96
2021/01/21 13:48:42;;;;;;;2.00;0.60;;;12.90;72.50;;;;;;4990051;28;20054;-96
2021/01/21 13:51:10;;;;;;;1.45;0.45;;;12.80;72.40;;;;;;4984287;28;20055;-96
2021/01/21 13:53:37;;;;;;;1.63;0.50;;;12.80;72.30;;;;;;4979178;28;20058;-96
2021/01/21 13:56:05;;;;;;;1.30;0.50;;;12.70;72.70;;;;;;4979722;28;20138;-96
2021/01/21 13:58:34;;;;;;;2.38;0.65;;;12.70;73.10;;;;;;4986795;28;20051;-96
2021/01/21 14:01:01;;;;;;;2.45;0.60;;;12.70;73.00;;;;;;4982238;28;20055;-96
2021/01/21 14:03:29;;;;;;;2.35;0.60;;;12.80;73.00;;;;;;4979542;28;20055;-96
2021/01/21 14:05:56;;;;;;;1.55;0.60;;;12.70;72.90;;;;;;4982809;28;20396;-96
2021/01/21 14:08:23;;;;;;;1.27;0.50;;;12.60;72.70;;;;;;4943984;28;20051;-96
2021/01/21 14:10:50;;;;;;;2.00;0.60;;;12.60;74.10;;;;;;4978322;28;20125;-96
2021/01/21 14:13:18;;;;;;;1.13;0.60;;;12.60;73.20;;;;;;4981251;28;20138;-96
2021/01/21 14:15:45;;;;;;;2.05;0.50;;;12.50;73.70;;;;;;4985675;28;20063;-96
2021/01/21 14:18:12;;;;;;;2.03;0.60;;;12.50;73.10;;;;;;4933254;28;20057;-96
2021/01/21 14:20:39;;;;;;;2.08;0.63;;;12.60;73.40;;;;;;4950315;29;20134;-96
2021/01/21 14:23:09;;;;;;;2.28;0.65;;;12.50;73.50;;;;;;4927741;29;20055;-95
2021/01/21 14:25:36;;;;;;;2.47;0.70;;;12.50;73.50;;;;;;4960620;28;20057;-96
2021/01/21 14:28:04;;;;;;;3.15;0.98;;;12.40;74.20;;;;;;4956909;29;20055;-96
2021/01/21 14:30:31;;;;;;;4.20;1.80;;;12.50;74.40;;;;;;4960405;28;20043;-96
2021/01/21 14:32:58;;;;;;;4.07;0.80;;;12.40;74.40;;;;;;4978078;28;20453;-96
2021/01/21 14:35:26;;;;;;;2.08;0.70;;;12.40;74.40;;;;;;4978815;28;20662;-96
2021/01/21 14:37:53;;;;;;;2.60;0.90;;;12.40;74.50;;;;;;4977838;28;20051;-96
2021/01/21 14:40:21;;;;;;;1.70;0.63;;;12.40;75.00;;;;;;4981430;28;20055;-96
2021/01/21 14:42:48;;;;;;;3.22;0.80;;;12.30;75.00;;;;;;4987473;28;20070;-96
2021/01/21 14:45:17;;;;;;;1.85;0.70;;;12.30;75.10;;;;;;4985886;28;20053;-96
2021/01/21 14:47:45;;;;;;;2.33;0.70;;;12.20;75.10;;;;;;4986736;28;20507;-96
2021/01/21 14:52:55;;;;;;;1.48;0.60;;;12.50;74.70;;;;;;4969697;28;20054;-96
2021/01/21 14:55:26;;;;;;;2.42;0.70;;;12.50;74.50;;;;;;4980706;28;20062;-96
2021/01/21 14:57:57;;;;;;;2.33;0.80;;;12.40;74.50;;;;;;4982535;28;20097;-96
2021/01/21 15:00:28;;;;;;;1.90;0.70;;;12.40;74.40;;;;;;4982933;28;20054;-95
2021/01/21 15:02:55;;;;;;;1.95;0.80;;;12.40;74.60;;;;;;4984903;28;20054;-96
2021/01/21 15:05:22;;;;;;;2.25;0.80;;;12.40;74.50;;;;;;4983198;28;20475;-96
2021/01/21 15:07:48;;;;;;;2.20;0.80;;;12.40;75.20;;;;;;4961685;28;20047;-94
2021/01/21 15:10:16;;;;;;;3.17;0.70;;;12.50;74.80;;;;;;4979280;28;20117;-94
2021/01/21 15:12:43;;;;;;;2.42;0.68;;;12.50;74.70;;;;;;4947609;28;20082;-96
2021/01/21 15:15:16;;;;;;;3.03;0.90;;;12.60;74.40;;;;;;4983388;28;20137;-96
2021/01/21 15:17:42;;;;;;;2.95;1.38;;;12.50;74.70;;;;;;4961626;28;20078;-95
2021/01/21 15:20:11;;;;;;;1.90;0.70;;;12.60;74.40;;;;;;4978311;28;20082;-95
2021/01/21 15:22:38;;;;;;;2.38;0.50;;;12.60;74.30;;;;;;4977858;28;20137;-95
2021/01/21 15:25:06;;;;;;;1.95;0.70;;;12.40;74.30;;;;;;4960110;28;20074;-95
2021/01/21 15:27:36;;;;;;;1.58;0.70;;;12.70;73.80;;;;;;4959701;28;20100;-95
2021/01/21 15:30:05;;;;;;;1.40;0.60;;;12.70;72.90;;;;;;4976966;28;20043;-96
2021/01/21 15:32:32;;;;;;;2.15;0.60;;;12.60;72.80;;;;;;4978341;28;20114;-95
2021/01/21 15:34:59;;;;;;;1.63;0.70;;;12.70;72.00;;;;;;4961920;28;20074;-94
2021/01/21 15:37:26;;;;;;;1.25;0.52;;;12.70;72.00;;;;;;4984875;28;20086;-96
2021/01/21 15:39:52;;;;;;;2.55;0.68;;;12.70;71.90;;;;;;4986650;28;20083;-96
2021/01/21 15:42:19;;;;;;;1.67;0.70;;;12.70;71.80;;;;;;4968610;28;20358;-96
2021/01/21 15:44:46;;;;;;;1.63;0.70;;;12.70;71.80;;;;;;4971071;28;20062;-96
2021/01/21 15:47:14;;;;;;;1.33;0.60;;;12.60;71.80;;;;;;4963446;29;20122;-96
2021/01/21 15:49:40;;;;;;;1.35;0.52;;;12.60;71.70;;;;;;4961240;28;20089;-96
2021/01/21 15:52:07;;;;;;;2.50;0.70;;;12.60;71.60;;;;;;4964140;29;20066;-95
2021/01/21 15:54:34;;;;;;;2.22;0.65;;;12.60;71.50;;;;;;4976242;28;20051;-94
2021/01/21 15:57:00;;;;;;;1.92;0.73;;;12.70;71.70;;;;;;4956986;29;20047;-92
2021/01/21 15:59:27;;;;;;;1.95;0.75;;;12.60;71.70;;;;;;4957581;28;20050;-93
2021/01/21 16:01:54;;;;;;;2.60;0.70;;;12.60;72.00;;;;;;4980126;28;20520;-96
2021/01/21 16:04:22;;;;;;;3.05;0.90;;;12.60;72.80;;;;;;4980038;28;20067;-96
2021/01/21 16:06:49;;;;;;;1.98;0.70;;;12.40;73.40;;;;;;4969198;28;20051;-96
2021/01/21 16:09:16;;;;;;;1.63;0.60;;;12.40;74.00;;;;;;4959525;28;20071;-94
2021/01/21 16:11:42;;;;;;;1.95;0.70;;;12.30;75.10;;;;;;4960178;29;20066;-96
2021/01/21 16:14:13;;;;;;;3.10;1.00;;;12.40;75.20;;;;;;4960941;28;20102;-96
2021/01/21 16:16:39;;;;;;;4.03;1.73;;;12.50;75.30;;;;;;4968364;28;20065;-95
2021/01/21 16:19:06;;;;;;;7.75;3.65;;;12.40;75.30;;;;;;4979843;28;20161;-95
2021/01/21 16:21:34;;;;;;;1.65;0.77;;;12.50;75.10;;;;;;4967863;28;20114;-94
2021/01/21 16:24:01;;;;;;;1.38;0.55;;;12.50;74.90;;;;;;4972017;28;20196;-96
2021/01/21 16:26:27;;;;;;;1.70;0.70;;;12.50;74.90;;;;;;4976600;28;20053;-96
2021/01/21 16:28:59;;;;;;;2.53;0.70;;;12.30;75.00;;;;;;4970252;28;20051;-94
2021/01/21 16:31:25;;;;;;;1.50;0.52;;;12.50;74.80;;;;;;4973687;28;20065;-95
2021/01/21 16:33:53;;;;;;;3.00;0.77;;;12.50;74.90;;;;;;4985159;28;20051;-93
2021/01/21 16:36:21;;;;;;;2.65;0.70;;;12.40;75.10;;;;;;4986050;28;20047;-94
2021/01/21 16:38:51;;;;;;;1.38;0.55;;;12.50;75.90;;;;;;4986454;28;20066;-96
2021/01/21 16:41:18;;;;;;;1.75;0.60;;;12.30;76.50;;;;;;4970225;28;20061;-96
2021/01/21 16:43:47;;;;;;;2.05;0.70;;;12.40;76.70;;;;;;4965730;29;20051;-95
2021/01/21 16:46:14;;;;;;;2.15;0.70;;;12.30;77.20;;;;;;4971520;28;20127;-94
2021/01/21 16:48:41;;;;;;;1.80;0.65;;;12.30;77.00;;;;;;4959912;28;20046;-94
2021/01/21 16:51:07;;;;;;;1.50;0.70;;;12.30;77.00;;;;;;4957570;28;20090;-94
2021/01/21 16:53:34;;;;;;;2.03;0.60;;;12.40;76.40;;;;;;4958348;29;20055;-96
2021/01/21 16:56:02;;;;;;;1.90;0.70;;;12.30;76.30;;;;;;4960116;29;20063;-95
2021/01/21 16:58:30;;;;;;;2.38;0.90;;;12.50;76.00;;;;;;4961159;28;20047;-92
2021/01/21 17:00:57;;;;;;;2.20;0.80;;;12.30;75.10;;;;;;4950028;28;20050;-94
2021/01/21 17:03:24;;;;;;;2.60;1.10;;;12.20;75.40;;;;;;4970311;28;20130;-93
2021/01/21 17:05:50;;;;;;;2.38;1.02;;;12.00;75.60;;;;;;4986347;28;20085;-92
2021/01/21 17:08:17;;;;;;;2.38;1.00;;;12.20;75.60;;;;;;4970304;28;20134;-93
2021/01/21 17:10:44;;;;;;;4.30;1.15;;;12.00;75.80;;;;;;4958798;28;20074;-91
2021/01/21 17:13:11;;;;;;;2.45;1.08;;;11.80;75.60;;;;;;4981621;28;20074;-91
2021/01/21 17:15:38;;;;;;;3.67;1.30;;;12.10;75.40;;;;;;4992406;28;20058;-93
2021/01/21 17:18:05;;;;;;;3.78;1.63;;;12.00;75.70;;;;;;4991132;28;20046;-92
2021/01/21 17:20:32;;;;;;;2.65;1.00;;;11.90;75.70;;;;;;4962815;29;20055;-93
2021/01/21 17:22:59;;;;;;;2.40;1.10;;;11.90;75.80;;;;;;4945347;29;20079;-93
2021/01/21 17:25:26;;;;;;;2.38;1.00;;;12.00;76.20;;;;;;4976065;29;20039;-91
2021/01/21 17:27:53;;;;;;;2.72;0.95;;;11.90;75.30;;;;;;4985154;28;20051;-95
2021/01/21 17:30:22;;;;;;;2.83;1.20;;;12.00;75.10;;;;;;4980251;28;20047;-93
2021/01/21 17:32:49;;;;;;;3.17;1.10;;;12.10;74.50;;;;;;4989965;28;20057;-92
2021/01/21 17:35:18;;;;;;;2.92;1.00;;;12.10;74.30;;;;;;4988756;28;20254;-95
2021/01/21 17:37:47;;;;;;;1.83;0.80;;;12.00;74.00;;;;;;4969127;28;20054;-96
2021/01/21 17:40:15;;;;;;;2.85;1.00;;;12.10;73.70;;;;;;4979426;28;20051;-96
2021/01/21 17:42:55;;;;;;;1.95;0.75;;;12.20;73.80;;;;;;4974854;28;20043;-96
2021/01/21 17:45:23;;;;;;;2.65;1.00;;;12.10;73.80;;;;;;4970285;29;20054;-96
2021/01/21 17:47:50;;;;;;;3.25;1.30;;;12.00;73.50;;;;;;4973301;29;20525;-96
2021/01/21 17:50:18;;;;;;;5.53;2.70;;;12.10;73.50;;;;;;4946674;29;20052;-96
2021/01/21 17:52:45;;;;;;;4.15;1.90;;;12.10;73.20;;;;;;4952927;29;20171;-95
2021/01/21 17:55:16;;;;;;;3.65;1.10;;;12.00;73.30;;;;;;4973129;28;20058;-96
2021/01/21 17:57:43;;;;;;;3.75;1.30;;;12.00;73.60;;;;;;4956226;29;20048;-96
2021/01/21 18:00:12;;;;;;;3.90;1.25;;;12.00;73.60;;;;;;4937783;29;20481;-94
2021/01/21 18:02:40;;;;;;;2.53;1.00;;;11.70;74.00;;;;;;4929258;29;20079;-93
2021/01/21 18:05:08;;;;;;;2.10;0.93;;;11.80;73.90;;;;;;4933030;29;20151;-88
2021/01/21 18:07:41;;;;;;;2.80;1.00;;;11.90;73.40;;;;;;4943432;28;20301;-96
2021/01/21 18:10:09;;;;;;;2.88;1.00;;;11.80;73.40;;;;;;4950645;29;20084;-96
2021/01/21 18:12:39;;;;;;;2.28;0.80;;;11.90;73.30;;;;;;4954460;28;20047;-96
2021/01/21 18:15:12;;;;;;;2.45;0.98;;;11.80;73.20;;;;;;4951763;28;20047;-96
2021/01/21 18:17:40;;;;;;;3.35;1.00;;;11.60;73.60;;;;;;4942194;29;20107;-95
2021/01/21 18:20:08;;;;;;;3.78;1.00;;;11.80;73.40;;;;;;4944318;29;20478;-96
2021/01/21 18:22:36;;;;;;;1.67;0.75;;;11.90;72.90;;;;;;4955983;29;20102;-96
2021/01/21 18:25:04;;;;;;;2.20;1.00;;;11.90;72.30;;;;;;4947430;28;20516;-96
2021/01/21 18:27:31;;;;;;;3.17;1.00;;;11.90;72.50;;;;;;4941171;29;20066;-94
2021/01/21 18:29:58;;;;;;;2.53;0.90;;;12.00;72.40;;;;;;4953378;29;20138;-92
2021/01/21 18:32:24;;;;;;;3.60;1.00;;;11.80;72.90;;;;;;4955354;28;20090;-95
2021/01/21 18:34:52;;;;;;;3.50;0.90;;;11.70;73.00;;;;;;4942402;28;20765;-95
2021/01/21 18:37:18;;;;;;;2.20;0.95;;;11.70;73.30;;;;;;4947780;29;20079;-91
2021/01/21 18:39:45;;;;;;;2.60;1.00;;;11.80;73.00;;;;;;4944349;28;20138;-96
2021/01/21 18:42:14;;;;;;;4.63;2.08;;;11.80;72.70;;;;;;4963101;28;20043;-92
2021/01/21 18:44:41;;;;;;;2.83;1.05;;;11.60;73.30;;;;;;4943459;28;20070;-96
2021/01/21 18:47:08;;;;;;;2.47;1.02;;;11.80;73.10;;;;;;4958653;29;20054;-94
2021/01/21 18:49:34;;;;;;;2.33;0.90;;;11.80;73.40;;;;;;4942121;28;20086;-95
2021/01/21 18:52:02;;;;;;;2.10;0.77;;;11.70;73.50;;;;;;4948525;28;20507;-91
2021/01/21 18:54:28;;;;;;;2.58;1.00;;;11.80;73.10;;;;;;4940261;29;20062;-95
2021/01/21 18:56:55;;;;;;;2.63;1.10;;;11.80;72.90;;;;;;4947938;28;20567;-92
2021/01/21 18:59:22;;;;;;;2.08;0.98;;;11.70;73.50;;;;;;4940810;28;20134;-92
2021/01/21 19:01:49;;;;;;;2.65;0.90;;;11.60;74.20;;;;;;4936606;29;20067;-93
2021/01/21 19:04:15;;;;;;;2.58;1.00;;;11.60;73.70;;;;;;4934875;29;20115;-90
2021/01/21 19:06:42;;;;;;;2.25;0.80;;;11.60;74.30;;;;;;4942952;29;20062;-88
2021/01/21 19:09:10;;;;;;;2.88;1.00;;;11.60;74.00;;;;;;4950663;29;20051;-91
2021/01/21 19:11:36;;;;;;;2.88;1.10;;;11.60;73.30;;;;;;4951774;28;20134;-91
2021/01/21 19:14:03;;;;;;;3.00;1.10;;;11.60;73.30;;;;;;4952971;29;20059;-93
2021/01/21 19:16:30;;;;;;;3.85;1.10;;;11.60;73.50;;;;;;4939119;29;20056;-95
2021/01/21 19:18:57;;;;;;;2.08;0.90;;;11.50;73.30;;;;;;4936530;29;20058;-88
2021/01/21 19:21:31;;;;;;;2.67;1.15;;;11.70;73.00;;;;;;4953142;29;20063;-96
2021/01/21 19:24:03;;;;;;;3.67;1.30;;;11.70;72.60;;;;;;4966750;28;20047;-94
2021/01/21 19:26:30;;;;;;;3.28;1.10;;;11.80;72.20;;;;;;4944431;29;20051;-91
2021/01/21 19:28:57;;;;;;;2.30;1.00;;;11.70;72.00;;;;;;4937682;29;20139;-95